Time;durP1;ratioP1;P1;durP2;ratioP2;P2;SDS_P1;SDS_P2;PMS_P1;PMS_P2;Temp;Humidity;BMP_temperature;BMP_pressure;BME280_temperature;BME280_humidity;BME280_pressure;Samples;Min_cycle;Max_cycle;Signal;HPM_P1;HPM_P2
2023/07/30 00:01:44;;;;;;;3.15;1.73;;;;;;;;;;5016558;28;20129;-64
2023/07/30 00:04:10;;;;;;;3.35;1.60;;;;;;;;;;5015708;28;20096;-64
2023/07/30 00:06:36;;;;;;;2.97;1.40;;;;;;;;;;5006856;28;20045;-64
2023/07/30 00:09:03;;;;;;;4.25;1.65;;;;;;;;;;5006979;28;20463;-64
2023/07/30 00:11:30;;;;;;;3.30;1.48;;;;;;;;;;5006574;28;20042;-64
2023/07/30 00:13:56;;;;;;;3.67;2.00;;;;;;;;;;5007464;28;20385;-64
2023/07/30 00:16:22;;;;;;;4.90;1.70;;;;;;;;;;5006527;28;20048;-64
2023/07/30 00:18:48;;;;;;;6.35;2.08;;;;;;;;;;5006102;28;20033;-63
2023/07/30 00:21:14;;;;;;;4.50;1.67;;;;;;;;;;5013248;28;20096;-63
2023/07/30 00:23:40;;;;;;;3.80;1.85;;;;;;;;;;5019945;28;20049;-64
2023/07/30 00:26:06;;;;;;;3.80;2.08;;;;;;;;;;5005667;28;20078;-64
2023/07/30 00:28:31;;;;;;;2.75;1.77;;;;;;;;;;5021095;28;20033;-64
2023/07/30 00:30:57;;;;;;;3.88;2.10;;;;;;;;;;5025209;28;20049;-64
2023/07/30 00:33:24;;;;;;;1.85;1.52;;;;;;;;;;5018070;28;20092;-64
2023/07/30 00:35:52;;;;;;;5.78;2.40;;;;;;;;;;5017680;28;20435;-63
2023/07/30 00:38:18;;;;;;;3.30;1.85;;;;;;;;;;5013531;28;20065;-63
2023/07/30 00:40:44;;;;;;;1.60;1.50;;;;;;;;;;5014494;28;20077;-63
2023/07/30 00:43:11;;;;;;;4.35;2.05;;;;;;;;;;5006806;28;20048;-64
2023/07/30 00:45:38;;;;;;;3.38;2.20;;;;;;;;;;5006219;28;20046;-64
2023/07/30 00:48:05;;;;;;;5.63;2.05;;;;;;;;;;5005256;28;20739;-64
2023/07/30 00:50:31;;;;;;;3.70;1.98;;;;;;;;;;5005954;28;20042;-64
2023/07/30 00:52:57;;;;;;;2.33;1.40;;;;;;;;;;5006343;28;20046;-64
2023/07/30 00:55:24;;;;;;;3.33;1.48;;;;;;;;;;5005306;28;20049;-63
2023/07/30 00:57:50;;;;;;;4.65;1.30;;;;;;;;;;5006029;28;20601;-64
2023/07/30 01:00:16;;;;;;;1.60;1.05;;;;;;;;;;5006812;28;20106;-64
2023/07/30 01:02:42;;;;;;;2.35;1.98;;;;;;;;;;5017188;28;20548;-64
2023/07/30 01:05:08;;;;;;;3.03;1.80;;;;;;;;;;5005669;28;20038;-64
2023/07/30 01:07:34;;;;;;;4.80;1.95;;;;;;;;;;5004920;28;20562;-64
2023/07/30 01:10:01;;;;;;;2.45;1.45;;;;;;;;;;5008168;28;20041;-64
2023/07/30 01:12:28;;;;;;;3.28;1.58;;;;;;;;;;5010193;28;20053;-64
2023/07/30 01:14:55;;;;;;;4.57;1.83;;;;;;;;;;5025034;28;20044;-63
2023/07/30 01:17:22;;;;;;;2.85;1.52;;;;;;;;;;5024436;28;20288;-64
2023/07/30 01:19:49;;;;;;;4.72;2.53;;;;;;;;;;5009415;28;20496;-64
2023/07/30 01:22:15;;;;;;;6.15;2.65;;;;;;;;;;5004875;28;20042;-64
2023/07/30 01:24:41;;;;;;;4.70;2.17;;;;;;;;;;5006231;28;20058;-64
2023/07/30 01:27:08;;;;;;;2.17;1.67;;;;;;;;;;5005363;28;20049;-64
2023/07/30 01:29:51;;;;;;;2.83;1.70;;;;;;;;;;5004927;28;20053;-64
2023/07/30 01:32:17;;;;;;;2.83;1.90;;;;;;;;;;5005468;28;20625;-64
2023/07/30 01:34:45;;;;;;;3.33;1.98;;;;;;;;;;5005728;28;20365;-64
2023/07/30 01:37:12;;;;;;;3.85;2.30;;;;;;;;;;5005205;28;20080;-64
2023/07/30 01:39:40;;;;;;;5.28;2.10;;;;;;;;;;5005480;28;20085;-64
2023/07/30 01:42:06;;;;;;;5.47;2.13;;;;;;;;;;5005346;28;20046;-64
2023/07/30 01:44:32;;;;;;;8.45;3.20;;;;;;;;;;5005035;28;20045;-63
2023/07/30 01:46:58;;;;;;;4.80;2.70;;;;;;;;;;5015518;28;20037;-63
2023/07/30 01:49:24;;;;;;;7.30;2.83;;;;;;;;;;5018070;28;20549;-64
2023/07/30 01:51:49;;;;;;;3.25;1.77;;;;;;;;;;5014185;28;20487;-64
2023/07/30 01:54:15;;;;;;;2.35;1.80;;;;;;;;;;5016442;28;20053;-64
2023/07/30 01:56:41;;;;;;;2.35;1.58;;;;;;;;;;5014833;28;20655;-64
2023/07/30 01:59:07;;;;;;;3.95;2.25;;;;;;;;;;5017704;28;20045;-63
2023/07/30 02:01:33;;;;;;;3.92;2.05;;;;;;;;;;5015967;28;20046;-63
2023/07/30 02:04:00;;;;;;;2.08;1.60;;;;;;;;;;5018940;28;21062;-63
2023/07/30 02:06:26;;;;;;;1.40;1.13;;;;;;;;;;5020601;28;20407;-63
2023/07/30 02:08:52;;;;;;;3.17;1.67;;;;;;;;;;5020271;28;20036;-63
2023/07/30 02:11:18;;;;;;;3.83;2.58;;;;;;;;;;5018546;28;20041;-64
2023/07/30 02:13:44;;;;;;;4.70;2.17;;;;;;;;;;5014849;28;20046;-64
2023/07/30 02:16:10;;;;;;;4.75;2.83;;;;;;;;;;5024933;28;20080;-64
2023/07/30 02:18:36;;;;;;;2.78;2.08;;;;;;;;;;5019736;28;20068;-63
2023/07/30 02:21:02;;;;;;;3.47;1.92;;;;;;;;;;5023232;28;20040;-63
2023/07/30 02:23:28;;;;;;;2.65;1.48;;;;;;;;;;5021078;28;20042;-63
2023/07/30 02:25:54;;;;;;;2.35;1.25;;;;;;;;;;5021682;28;20053;-64
2023/07/30 02:28:20;;;;;;;1.20;1.10;;;;;;;;;;5019724;28;20057;-64
2023/07/30 02:30:46;;;;;;;2.03;1.38;;;;;;;;;;5019369;28;20034;-64
2023/07/30 02:33:12;;;;;;;1.73;1.30;;;;;;;;;;5023556;28;20025;-64
2023/07/30 02:35:38;;;;;;;3.88;1.38;;;;;;;;;;5020081;28;20627;-64
2023/07/30 02:38:04;;;;;;;4.78;1.70;;;;;;;;;;5018343;28;20068;-63
2023/07/30 02:40:31;;;;;;;6.00;2.38;;;;;;;;;;5021883;28;20041;-63
2023/07/30 02:42:57;;;;;;;3.80;1.95;;;;;;;;;;5017632;28;20045;-63
2023/07/30 02:45:23;;;;;;;4.40;1.88;;;;;;;;;;5015700;28;20073;-63
2023/07/30 02:47:49;;;;;;;4.97;2.33;;;;;;;;;;5016761;28;20065;-64
2023/07/30 02:50:15;;;;;;;3.78;2.05;;;;;;;;;;5015508;28;20129;-63
2023/07/30 02:52:41;;;;;;;4.35;1.95;;;;;;;;;;5017090;28;20115;-64
2023/07/30 02:55:07;;;;;;;3.92;2.00;;;;;;;;;;5017351;28;20045;-64
2023/07/30 02:57:33;;;;;;;4.63;2.03;;;;;;;;;;5017482;28;20072;-63
2023/07/30 02:59:59;;;;;;;8.18;3.45;;;;;;;;;;5017368;28;20053;-64
2023/07/30 03:02:25;;;;;;;10.18;3.33;;;;;;;;;;5015330;28;20041;-64
2023/07/30 03:04:51;;;;;;;3.30;2.20;;;;;;;;;;5019260;28;20092;-64
2023/07/30 03:07:18;;;;;;;7.90;2.80;;;;;;;;;;5011998;28;20081;-64
2023/07/30 03:09:44;;;;;;;4.28;2.15;;;;;;;;;;5018817;28;20046;-63
2023/07/30 03:12:10;;;;;;;3.58;2.20;;;;;;;;;;5020185;28;20053;-63
2023/07/30 03:14:36;;;;;;;4.75;1.85;;;;;;;;;;5016346;28;20091;-64
2023/07/30 03:17:02;;;;;;;4.22;1.63;;;;;;;;;;5013041;28;20046;-66
2023/07/30 03:19:28;;;;;;;3.65;1.90;;;;;;;;;;5024843;28;20042;-63
2023/07/30 03:21:54;;;;;;;2.80;1.85;;;;;;;;;;5018491;28;20037;-64
2023/07/30 03:24:20;;;;;;;2.60;2.08;;;;;;;;;;5013264;28;20406;-64
2023/07/30 03:26:46;;;;;;;4.20;2.10;;;;;;;;;;5019879;28;20076;-64
2023/07/30 03:29:12;;;;;;;2.83;2.03;;;;;;;;;;5019412;28;20037;-64
2023/07/30 03:31:38;;;;;;;3.45;2.22;;;;;;;;;;5019960;28;20037;-64
2023/07/30 03:34:04;;;;;;;8.20;2.20;;;;;;;;;;5015141;28;20037;-63
2023/07/30 03:36:30;;;;;;;6.65;2.40;;;;;;;;;;5018780;28;20042;-63
2023/07/30 03:38:56;;;;;;;4.03;1.90;;;;;;;;;;5020549;28;20434;-64
2023/07/30 03:41:22;;;;;;;3.50;1.75;;;;;;;;;;5023320;28;20092;-64
2023/07/30 03:43:48;;;;;;;5.25;1.88;;;;;;;;;;5015684;28;20477;-64
2023/07/30 03:46:14;;;;;;;5.25;2.50;;;;;;;;;;5016490;28;20037;-63
2023/07/30 03:48:40;;;;;;;3.47;1.52;;;;;;;;;;5019697;28;20045;-63
2023/07/30 03:51:07;;;;;;;6.38;2.30;;;;;;;;;;5017032;28;20045;-63
2023/07/30 03:53:33;;;;;;;3.13;1.77;;;;;;;;;;5017981;28;20061;-63
2023/07/30 03:56:00;;;;;;;3.13;1.33;;;;;;;;;;5012019;28;20046;-63
2023/07/30 03:58:26;;;;;;;4.07;1.85;;;;;;;;;;5018400;28;20628;-64
2023/07/30 04:00:52;;;;;;;4.40;2.10;;;;;;;;;;5021356;28;20112;-64
2023/07/30 04:03:18;;;;;;;6.60;2.38;;;;;;;;;;5015329;28;20112;-63
2023/07/30 04:05:44;;;;;;;6.38;2.90;;;;;;;;;;5019233;28;20091;-64
2023/07/30 04:08:10;;;;;;;3.13;1.50;;;;;;;;;;5019148;28;20136;-63
2023/07/30 04:10:36;;;;;;;4.75;1.95;;;;;;;;;;5017367;28;20033;-64
2023/07/30 04:13:02;;;;;;;4.70;2.55;;;;;;;;;;5015424;28;20030;-64
2023/07/30 04:15:28;;;;;;;3.72;1.85;;;;;;;;;;5015776;28;20651;-64
2023/07/30 04:17:54;;;;;;;7.50;2.20;;;;;;;;;;5017557;28;20034;-64
2023/07/30 04:20:20;;;;;;;6.13;2.33;;;;;;;;;;5017976;28;20041;-63
2023/07/30 04:22:46;;;;;;;5.07;2.28;;;;;;;;;;5016267;28;20102;-64
2023/07/30 04:25:12;;;;;;;4.13;1.85;;;;;;;;;;5020986;28;20037;-64
2023/07/30 04:27:38;;;;;;;4.47;1.67;;;;;;;;;;5016870;28;20407;-64
2023/07/30 04:30:07;;;;;;;4.05;2.33;;;;;;;;;;5019435;28;20803;-63
2023/07/30 04:32:33;;;;;;;4.15;1.73;;;;;;;;;;5020462;28;20041;-63
2023/07/30 04:34:59;;;;;;;3.22;1.63;;;;;;;;;;5019821;28;20559;-63
2023/07/30 04:37:25;;;;;;;4.85;1.75;;;;;;;;;;5018128;28;20143;-64
2023/07/30 04:39:51;;;;;;;3.38;1.90;;;;;;;;;;5019643;28;20075;-64
2023/07/30 04:42:17;;;;;;;8.90;1.95;;;;;;;;;;5017289;28;20714;-64
2023/07/30 04:44:43;;;;;;;5.78;2.20;;;;;;;;;;5016649;28;20033;-63
2023/07/30 04:47:09;;;;;;;3.22;1.67;;;;;;;;;;5014837;28;20062;-63
2023/07/30 04:49:37;;;;;;;7.35;1.85;;;;;;;;;;5015286;28;20071;-64
2023/07/30 04:52:03;;;;;;;4.32;1.73;;;;;;;;;;5022895;28;20048;-64
2023/07/30 04:54:29;;;;;;;2.67;1.33;;;;;;;;;;5020142;28;20100;-64
2023/07/30 04:56:55;;;;;;;5.38;2.08;;;;;;;;;;5017689;28;20053;-64
2023/07/30 04:59:21;;;;;;;4.90;1.60;;;;;;;;;;5025358;28;20046;-64
2023/07/30 05:01:47;;;;;;;5.72;1.45;;;;;;;;;;5008935;28;20061;-63
2023/07/30 05:04:13;;;;;;;4.20;1.65;;;;;;;;;;5005997;28;20411;-63
2023/07/30 05:06:39;;;;;;;3.35;1.35;;;;;;;;;;5021055;28;20045;-64
2023/07/30 05:09:05;;;;;;;2.78;1.05;;;;;;;;;;5025232;28;20107;-64
2023/07/30 05:11:31;;;;;;;3.20;1.15;;;;;;;;;;5025487;28;20041;-64
2023/07/30 05:13:57;;;;;;;2.38;1.20;;;;;;;;;;5025192;28;20041;-64
2023/07/30 05:16:23;;;;;;;6.22;2.45;;;;;;;;;;5025303;28;20045;-64
2023/07/30 05:18:49;;;;;;;4.63;2.20;;;;;;;;;;5025504;28;20390;-63
2023/07/30 05:21:15;;;;;;;8.55;2.42;;;;;;;;;;5024622;28;20735;-63
2023/07/30 05:23:41;;;;;;;2.15;1.60;;;;;;;;;;5024353;28;20464;-64
2023/07/30 05:26:07;;;;;;;2.92;1.90;;;;;;;;;;5014355;28;20092;-64
2023/07/30 05:28:33;;;;;;;5.75;1.77;;;;;;;;;;5018733;28;20042;-64
2023/07/30 05:30:59;;;;;;;4.75;1.48;;;;;;;;;;5014026;28;20033;-63
2023/07/30 05:33:25;;;;;;;4.75;1.30;;;;;;;;;;5018933;28;20053;-64
2023/07/30 05:35:51;;;;;;;2.83;1.30;;;;;;;;;;5004752;28;20042;-64
2023/07/30 05:38:17;;;;;;;9.70;2.80;;;;;;;;;;5009822;28;20045;-63
2023/07/30 05:40:43;;;;;;;4.45;1.90;;;;;;;;;;5022784;28;20045;-63
2023/07/30 05:43:09;;;;;;;3.42;1.55;;;;;;;;;;5013308;28;20049;-63
2023/07/30 05:45:35;;;;;;;3.47;1.30;;;;;;;;;;5029293;28;20052;-63
2023/07/30 05:48:01;;;;;;;1.85;0.90;;;;;;;;;;5010688;28;20077;-63
2023/07/30 05:50:27;;;;;;;2.25;1.23;;;;;;;;;;5009282;28;20223;-63
2023/07/30 05:52:53;;;;;;;3.38;1.05;;;;;;;;;;5009728;28;20108;-63
2023/07/30 05:55:19;;;;;;;2.88;1.15;;;;;;;;;;5009381;28;20045;-63
2023/07/30 05:57:45;;;;;;;2.00;1.35;;;;;;;;;;5008959;28;20040;-63
2023/07/30 06:00:11;;;;;;;7.00;2.10;;;;;;;;;;5018909;28;20049;-63
2023/07/30 06:02:38;;;;;;;2.92;1.42;;;;;;;;;;5018268;28;20054;-63
2023/07/30 06:05:04;;;;;;;2.03;0.82;;;;;;;;;;5021382;28;20065;-63
2023/07/30 06:07:30;;;;;;;5.88;0.90;;;;;;;;;;5019522;28;20049;-63
2023/07/30 06:09:56;;;;;;;2.55;1.30;;;;;;;;;;5018016;28;20068;-63
2023/07/30 06:12:22;;;;;;;3.65;1.10;;;;;;;;;;5025315;28;20577;-63
2023/07/30 06:14:48;;;;;;;6.30;1.52;;;;;;;;;;5017737;28;20128;-64
2023/07/30 06:17:14;;;;;;;6.57;1.52;;;;;;;;;;5021625;28;20033;-64
2023/07/30 06:19:40;;;;;;;5.03;1.48;;;;;;;;;;5021940;28;20049;-64
2023/07/30 06:22:06;;;;;;;2.08;1.02;;;;;;;;;;5019831;28;20044;-64
2023/07/30 06:24:32;;;;;;;3.65;1.33;;;;;;;;;;5017717;28;20054;-64
2023/07/30 06:26:58;;;;;;;4.20;1.27;;;;;;;;;;5018818;28;20041;-64
2023/07/30 06:29:24;;;;;;;3.60;1.63;;;;;;;;;;5020223;28;20030;-64
2023/07/30 06:31:50;;;;;;;2.58;1.20;;;;;;;;;;5021489;28;20046;-63
2023/07/30 06:34:17;;;;;;;5.93;1.88;;;;;;;;;;5022645;28;20040;-64
2023/07/30 06:36:43;;;;;;;3.33;1.45;;;;;;;;;;5018660;28;20073;-64
2023/07/30 06:39:08;;;;;;;3.88;1.33;;;;;;;;;;5017728;28;20119;-64
2023/07/30 06:41:35;;;;;;;5.15;1.80;;;;;;;;;;5020074;28;20137;-64
2023/07/30 06:44:00;;;;;;;9.35;2.40;;;;;;;;;;5021966;28;20474;-64
2023/07/30 06:46:27;;;;;;;6.28;1.90;;;;;;;;;;5016653;28;20127;-64
2023/07/30 06:48:52;;;;;;;3.40;1.70;;;;;;;;;;5017090;28;20029;-64
2023/07/30 06:51:20;;;;;;;3.85;1.50;;;;;;;;;;5021475;28;20060;-63
2023/07/30 06:53:46;;;;;;;4.35;1.67;;;;;;;;;;5020640;28;20049;-64
2023/07/30 06:56:12;;;;;;;4.85;1.55;;;;;;;;;;5017932;28;20033;-64
2023/07/30 06:58:38;;;;;;;3.10;1.20;;;;;;;;;;5019811;28;20053;-64
2023/07/30 07:01:04;;;;;;;5.15;1.88;;;;;;;;;;5013616;28;20611;-63
2023/07/30 07:03:30;;;;;;;3.80;1.60;;;;;;;;;;5014346;28;20042;-63
2023/07/30 07:05:57;;;;;;;4.65;1.65;;;;;;;;;;5012586;28;20501;-64
2023/07/30 07:08:23;;;;;;;6.85;1.52;;;;;;;;;;5013030;28;20088;-64
2023/07/30 07:10:49;;;;;;;8.68;2.92;;;;;;;;;;5013075;28;20041;-63
2023/07/30 07:13:16;;;;;;;12.73;2.47;;;;;;;;;;5012516;28;20045;-63
2023/07/30 07:15:42;;;;;;;4.47;2.20;;;;;;;;;;5015253;28;20056;-63
2023/07/30 07:18:08;;;;;;;3.83;1.70;;;;;;;;;;5016127;28;20077;-63
2023/07/30 07:20:34;;;;;;;6.72;1.92;;;;;;;;;;5012259;28;20113;-63
2023/07/30 07:23:00;;;;;;;6.03;2.05;;;;;;;;;;5015666;28;20088;-63
2023/07/30 07:25:27;;;;;;;5.88;2.05;;;;;;;;;;5018352;28;20487;-63
2023/07/30 07:27:53;;;;;;;6.57;2.08;;;;;;;;;;5015212;28;20033;-63
2023/07/30 07:30:19;;;;;;;6.75;1.95;;;;;;;;;;5018517;28;20034;-63
2023/07/30 07:32:45;;;;;;;4.75;2.00;;;;;;;;;;5014564;28;20125;-63
2023/07/30 07:35:11;;;;;;;9.43;1.90;;;;;;;;;;5017593;28;20096;-63
2023/07/30 07:37:37;;;;;;;4.05;1.73;;;;;;;;;;5015621;28;20053;-63
2023/07/30 07:40:03;;;;;;;5.75;1.85;;;;;;;;;;5019107;28;20038;-63
2023/07/30 07:42:30;;;;;;;9.82;2.58;;;;;;;;;;5011519;28;20044;-63
2023/07/30 07:44:56;;;;;;;4.93;1.70;;;;;;;;;;5015491;28;20045;-63
2023/07/30 07:47:23;;;;;;;5.28;1.92;;;;;;;;;;5011991;28;20558;-57
2023/07/30 07:49:49;;;;;;;6.82;2.13;;;;;;;;;;5016552;28;20069;-58
2023/07/30 07:52:15;;;;;;;6.78;2.30;;;;;;;;;;5012629;28;20041;-60
2023/07/30 07:54:41;;;;;;;5.20;1.77;;;;;;;;;;5018026;28;20674;-68
2023/07/30 07:57:08;;;;;;;6.35;2.00;;;;;;;;;;5008306;28;20049;-60
2023/07/30 07:59:34;;;;;;;5.95;2.15;;;;;;;;;;5012765;28;20079;-63
2023/07/30 08:02:00;;;;;;;9.77;2.65;;;;;;;;;;5011744;28;20046;-63
2023/07/30 08:04:26;;;;;;;8.05;2.00;;;;;;;;;;5010175;28;20037;-63
2023/07/30 08:06:52;;;;;;;3.45;1.40;;;;;;;;;;5016469;28;20077;-63
2023/07/30 08:09:18;;;;;;;7.40;1.90;;;;;;;;;;5014456;28;20460;-64
2023/07/30 08:11:44;;;;;;;5.40;1.92;;;;;;;;;;5016580;28;20407;-64
2023/07/30 08:14:10;;;;;;;6.00;1.65;;;;;;;;;;5015147;28;20525;-64
2023/07/30 08:16:36;;;;;;;5.10;2.08;;;;;;;;;;5008389;28;20034;-64
2023/07/30 08:19:03;;;;;;;3.75;1.50;;;;;;;;;;5015256;28;20045;-64
2023/07/30 08:21:29;;;;;;;7.57;2.20;;;;;;;;;;5011822;28;20112;-64
2023/07/30 08:23:55;;;;;;;10.25;2.65;;;;;;;;;;5010252;28;20037;-64
2023/07/30 08:26:21;;;;;;;3.65;1.45;;;;;;;;;;5013789;28;20049;-64
2023/07/30 08:28:47;;;;;;;5.32;2.13;;;;;;;;;;5015367;28;20037;-64
2023/07/30 08:31:13;;;;;;;9.35;2.40;;;;;;;;;;5015947;28;20412;-64
2023/07/30 08:33:39;;;;;;;8.10;1.88;;;;;;;;;;5017103;28;20042;-65
2023/07/30 08:36:05;;;;;;;2.97;1.83;;;;;;;;;;5019674;28;20171;-65
2023/07/30 08:38:31;;;;;;;6.32;1.92;;;;;;;;;;5011570;28;20055;-64
2023/07/30 08:40:57;;;;;;;7.90;2.30;;;;;;;;;;5016074;28;20120;-65
2023/07/30 08:43:23;;;;;;;6.68;2.03;;;;;;;;;;5006866;28;20117;-65
2023/07/30 08:45:49;;;;;;;4.03;1.60;;;;;;;;;;5002816;28;20120;-65
2023/07/30 08:48:15;;;;;;;3.47;1.25;;;;;;;;;;5012137;28;20045;-65
2023/07/30 08:50:42;;;;;;;3.58;1.48;;;;;;;;;;5006917;28;20073;-64
2023/07/30 08:53:08;;;;;;;3.20;1.23;;;;;;;;;;5003394;28;20105;-63
2023/07/30 08:55:35;;;;;;;4.38;1.50;;;;;;;;;;5009750;28;20164;-64
2023/07/30 08:58:05;;;;;;;5.00;1.60;;;;;;;;;;5015246;28;20046;-64
2023/07/30 09:00:37;;;;;;;3.47;1.57;;;;;;;;;;5012590;28;20132;-64
2023/07/30 09:03:04;;;;;;;4.70;2.08;;;;;;;;;;5018734;28;20186;-64
2023/07/30 09:05:31;;;;;;;5.13;1.25;;;;;;;;;;5011980;28;20558;-64
2023/07/30 09:07:57;;;;;;;4.15;1.48;;;;;;;;;;5012361;28;20570;-64
2023/07/30 09:10:24;;;;;;;3.53;1.13;;;;;;;;;;5011972;28;20607;-64
2023/07/30 09:12:58;;;;;;;5.13;1.75;;;;;;;;;;5016255;28;20869;-64
2023/07/30 09:15:37;;;;;;;1.60;0.88;;;;;;;;;;5013475;28;20042;-64
2023/07/30 09:18:03;;;;;;;3.55;1.35;;;;;;;;;;5009113;28;20411;-64
2023/07/30 09:20:37;;;;;;;2.80;1.08;;;;;;;;;;5009056;28;20148;-64
2023/07/30 09:23:03;;;;;;;2.38;1.15;;;;;;;;;;5012074;28;20446;-64
2023/07/30 09:25:29;;;;;;;3.67;0.98;;;;;;;;;;5013950;28;20042;-64
2023/07/30 09:27:56;;;;;;;3.78;1.30;;;;;;;;;;5010784;28;20041;-64
2023/07/30 09:30:27;;;;;;;1.52;0.90;;;;;;;;;;5009776;28;20124;-64
2023/07/30 09:32:53;;;;;;;2.75;0.75;;;;;;;;;;5006085;28;20049;-64
2023/07/30 09:35:20;;;;;;;1.10;0.50;;;;;;;;;;5014416;28;20037;-64
2023/07/30 09:37:46;;;;;;;2.03;0.90;;;;;;;;;;5006472;28;20076;-64
2023/07/30 09:40:13;;;;;;;0.82;0.70;;;;;;;;;;5017575;28;20546;-64
2023/07/30 09:42:42;;;;;;;3.33;1.20;;;;;;;;;;5011699;28;20165;-64
2023/07/30 09:45:18;;;;;;;1.88;0.77;;;;;;;;;;5016907;28;20042;-64
2023/07/30 09:48:04;;;;;;;1.90;0.60;;;;;;;;;;5014544;28;20076;-64
2023/07/30 09:50:30;;;;;;;3.00;0.70;;;;;;;;;;5016373;28;20037;-64
2023/07/30 09:52:56;;;;;;;1.67;0.80;;;;;;;;;;5015057;28;20503;-64
2023/07/30 09:55:22;;;;;;;2.78;0.95;;;;;;;;;;5012345;28;20046;-64
2023/07/30 09:57:48;;;;;;;2.75;1.05;;;;;;;;;;5017085;28;20080;-64
2023/07/30 10:00:14;;;;;;;1.75;0.80;;;;;;;;;;5020948;28;20041;-64
2023/07/30 10:02:46;;;;;;;2.28;1.02;;;;;;;;;;5017758;28;20466;-63
2023/07/30 10:05:14;;;;;;;2.37;0.93;;;;;;;;;;5017898;28;20073;-64
2023/07/30 10:07:54;;;;;;;4.95;1.15;;;;;;;;;;5014973;28;20314;-64
2023/07/30 10:10:20;;;;;;;2.75;1.25;;;;;;;;;;5015992;28;20806;-64
2023/07/30 10:12:47;;;;;;;3.40;1.38;;;;;;;;;;5020413;28;20046;-64
2023/07/30 10:15:13;;;;;;;6.25;1.48;;;;;;;;;;5012635;28;20033;-64
2023/07/30 10:17:39;;;;;;;3.53;1.45;;;;;;;;;;5012512;28;20064;-60
2023/07/30 10:20:24;;;;;;;6.32;1.55;;;;;;;;;;5019873;28;20564;-60
2023/07/30 10:22:54;;;;;;;4.93;1.67;;;;;;;;;;5011546;28;20426;-60
2023/07/30 10:25:21;;;;;;;3.22;1.02;;;;;;;;;;5007361;28;20608;-60
2023/07/30 10:27:49;;;;;;;2.45;0.93;;;;;;;;;;5015035;28;20040;-60
2023/07/30 10:30:16;;;;;;;4.25;1.33;;;;;;;;;;5013150;28;20045;-60
2023/07/30 10:32:57;;;;;;;1.85;1.10;;;;;;;;;;5013530;28;20068;-60
2023/07/30 10:35:35;;;;;;;3.33;1.17;;;;;;;;;;5016688;28;20045;-60
2023/07/30 10:38:12;;;;;;;2.35;1.30;;;;;;;;;;5010352;28;20041;-60
2023/07/30 10:40:40;;;;;;;3.45;1.20;;;;;;;;;;5012181;28;20046;-60
2023/07/30 10:43:16;;;;;;;4.07;1.10;;;;;;;;;;5012431;28;20084;-60
2023/07/30 10:45:49;;;;;;;3.55;1.45;;;;;;;;;;5015074;28;20071;-60
2023/07/30 10:48:15;;;;;;;3.88;1.40;;;;;;;;;;5012277;28;20049;-60
2023/07/30 10:50:41;;;;;;;3.47;1.45;;;;;;;;;;5014807;28;20041;-60
2023/07/30 10:53:08;;;;;;;3.88;1.52;;;;;;;;;;5019238;28;20049;-61
2023/07/30 10:55:35;;;;;;;7.70;1.33;;;;;;;;;;5012901;28;20033;-61
2023/07/30 10:58:02;;;;;;;2.90;1.42;;;;;;;;;;5011872;28;20041;-60
2023/07/30 11:00:28;;;;;;;2.53;1.13;;;;;;;;;;5012123;28;20417;-60
2023/07/30 11:02:54;;;;;;;5.57;1.30;;;;;;;;;;5014744;28;20038;-61
2023/07/30 11:05:20;;;;;;;2.75;1.48;;;;;;;;;;5013024;28;20064;-60
2023/07/30 11:07:51;;;;;;;6.68;2.17;;;;;;;;;;5021413;28;20080;-60
2023/07/30 11:10:17;;;;;;;7.07;2.22;;;;;;;;;;5017687;28;20044;-60
2023/07/30 11:12:43;;;;;;;3.53;1.80;;;;;;;;;;5013957;28;20558;-60
2023/07/30 11:15:10;;;;;;;7.10;1.83;;;;;;;;;;5012113;28;20084;-60
2023/07/30 11:17:36;;;;;;;3.10;1.48;;;;;;;;;;5018929;28;20427;-60
2023/07/30 11:20:02;;;;;;;3.28;1.63;;;;;;;;;;5014091;28;20049;-60
2023/07/30 11:22:32;;;;;;;5.10;1.65;;;;;;;;;;5020744;28;20197;-61
2023/07/30 11:24:58;;;;;;;3.92;1.15;;;;;;;;;;5017325;28;20037;-60
2023/07/30 11:27:24;;;;;;;3.45;1.73;;;;;;;;;;5011664;28;20045;-61
2023/07/30 11:29:57;;;;;;;3.13;1.58;;;;;;;;;;5011382;28;20526;-60
2023/07/30 11:32:25;;;;;;;3.20;1.30;;;;;;;;;;5016590;28;20092;-60
2023/07/30 11:34:54;;;;;;;5.05;1.70;;;;;;;;;;5020625;28;20749;-59
2023/07/30 11:37:21;;;;;;;3.88;1.30;;;;;;;;;;5019586;28;20042;-59
2023/07/30 11:39:47;;;;;;;3.17;1.55;;;;;;;;;;5010064;28;20030;-59
2023/07/30 11:42:13;;;;;;;4.40;1.45;;;;;;;;;;5015836;28;20037;-59
2023/07/30 11:44:39;;;;;;;4.50;1.52;;;;;;;;;;5013361;28;20435;-59
2023/07/30 11:47:06;;;;;;;4.00;1.55;;;;;;;;;;5019770;28;20065;-59
2023/07/30 11:49:32;;;;;;;4.68;1.67;;;;;;;;;;5016734;28;20091;-60
2023/07/30 11:52:05;;;;;;;4.43;1.52;;;;;;;;;;5018891;28;20041;-60
2023/07/30 11:54:32;;;;;;;4.07;1.65;;;;;;;;;;5018277;28;20124;-60
2023/07/30 11:56:58;;;;;;;3.45;1.08;;;;;;;;;;5013404;28;20049;-60
2023/07/30 11:59:24;;;;;;;3.28;1.33;;;;;;;;;;5016976;28;20045;-60
2023/07/30 12:01:50;;;;;;;2.97;1.10;;;;;;;;;;5011752;28;20168;-60
2023/07/30 12:04:16;;;;;;;4.10;1.42;;;;;;;;;;5020019;28;20152;-60
2023/07/30 12:06:43;;;;;;;2.47;1.10;;;;;;;;;;5014579;28;20145;-60
2023/07/30 12:09:15;;;;;;;2.95;1.23;;;;;;;;;;5012767;28;20038;-61
2023/07/30 12:11:41;;;;;;;;;;;;;;;;;;5009163;28;20042;-60
2023/07/30 12:14:07;;;;;;;1.42;0.70;;;;;;;;;;5014705;28;19932;-61
2023/07/30 12:16:33;;;;;;;3.53;1.08;;;;;;;;;;5012690;28;20033;-60
2023/07/30 12:18:59;;;;;;;4.00;1.27;;;;;;;;;;5014879;28;20065;-60
2023/07/30 12:21:25;;;;;;;3.65;1.23;;;;;;;;;;5017571;28;20041;-60
2023/07/30 12:23:51;;;;;;;4.50;1.52;;;;;;;;;;5011646;28;20049;-60
2023/07/30 12:26:17;;;;;;;4.13;1.60;;;;;;;;;;5011125;28;20041;-60
2023/07/30 12:28:43;;;;;;;4.20;1.40;;;;;;;;;;5013309;28;20046;-61
2023/07/30 12:31:09;;;;;;;4.25;1.40;;;;;;;;;;5020113;28;20037;-60
2023/07/30 12:33:35;;;;;;;4.25;1.55;;;;;;;;;;5010562;28;20472;-60
2023/07/30 12:36:01;;;;;;;5.07;1.75;;;;;;;;;;5013927;28;20046;-61
2023/07/30 12:38:27;;;;;;;5.28;1.40;;;;;;;;;;5014499;28;20099;-60
2023/07/30 12:40:53;;;;;;;3.10;1.10;;;;;;;;;;5015904;28;20048;-60
2023/07/30 12:43:20;;;;;;;3.40;1.30;;;;;;;;;;5014246;28;20029;-60
2023/07/30 12:45:46;;;;;;;2.17;0.90;;;;;;;;;;5016466;28;20088;-60
2023/07/30 12:48:12;;;;;;;2.42;0.90;;;;;;;;;;5019244;28;20084;-60
2023/07/30 12:50:38;;;;;;;3.20;1.35;;;;;;;;;;5015603;28;20056;-60
2023/07/30 12:53:04;;;;;;;3.22;0.93;;;;;;;;;;5008390;28;20061;-60
2023/07/30 12:55:30;;;;;;;1.17;0.77;;;;;;;;;;5009412;28;20081;-59
2023/07/30 12:57:56;;;;;;;4.05;1.20;;;;;;;;;;5019391;28;20049;-60
2023/07/30 13:00:22;;;;;;;1.95;0.95;;;;;;;;;;5017163;28;20484;-60
2023/07/30 13:02:50;;;;;;;3.58;1.20;;;;;;;;;;5017923;28;20095;-61
2023/07/30 13:05:16;;;;;;;4.57;0.98;;;;;;;;;;5017121;28;20561;-61
2023/07/30 13:07:42;;;;;;;4.57;1.55;;;;;;;;;;5017226;28;20041;-60
2023/07/30 13:10:09;;;;;;;1.95;0.82;;;;;;;;;;5019504;28;20494;-60
2023/07/30 13:12:35;;;;;;;3.83;1.10;;;;;;;;;;5012377;28;20037;-61
2023/07/30 13:15:03;;;;;;;2.97;0.70;;;;;;;;;;5018543;28;20082;-60
2023/07/30 13:17:29;;;;;;;3.28;1.17;;;;;;;;;;5021184;28;20049;-63
2023/07/30 13:19:55;;;;;;;2.95;1.42;;;;;;;;;;5010449;28;20159;-61
2023/07/30 13:22:21;;;;;;;5.47;1.38;;;;;;;;;;5012115;28;20095;-60
2023/07/30 13:24:47;;;;;;;3.95;1.10;;;;;;;;;;5014602;28;20042;-61
2023/07/30 13:27:13;;;;;;;5.25;1.50;;;;;;;;;;5014395;28;20037;-60
2023/07/30 13:29:39;;;;;;;4.95;1.38;;;;;;;;;;5011553;28;20111;-60
2023/07/30 13:32:06;;;;;;;4.63;1.33;;;;;;;;;;5015338;28;20518;-60
2023/07/30 13:34:32;;;;;;;3.45;1.00;;;;;;;;;;5009798;28;20302;-60
2023/07/30 13:36:58;;;;;;;4.10;0.88;;;;;;;;;;5013784;28;20041;-60
2023/07/30 13:39:24;;;;;;;3.15;1.30;;;;;;;;;;5014875;28;20037;-60
2023/07/30 13:41:50;;;;;;;2.97;1.05;;;;;;;;;;5013227;28;20455;-60
2023/07/30 13:44:16;;;;;;;1.77;0.88;;;;;;;;;;5005732;28;20037;-61
2023/07/30 13:46:42;;;;;;;2.13;0.75;;;;;;;;;;5007863;28;20108;-61
2023/07/30 13:49:08;;;;;;;2.13;0.80;;;;;;;;;;5009927;28;20038;-60
2023/07/30 13:51:34;;;;;;;2.58;1.00;;;;;;;;;;5008397;28;20453;-60
2023/07/30 13:54:01;;;;;;;2.35;0.70;;;;;;;;;;5008893;28;20045;-60
2023/07/30 13:56:27;;;;;;;2.67;0.85;;;;;;;;;;5021456;28;20048;-60
2023/07/30 13:58:53;;;;;;;4.53;1.00;;;;;;;;;;5009659;28;20037;-60
2023/07/30 14:01:19;;;;;;;2.90;0.90;;;;;;;;;;5021963;28;20065;-60
2023/07/30 14:03:45;;;;;;;2.17;1.00;;;;;;;;;;5011690;28;20052;-60
2023/07/30 14:06:11;;;;;;;1.90;0.70;;;;;;;;;;5018145;28;20044;-60
2023/07/30 14:08:37;;;;;;;1.42;0.93;;;;;;;;;;5017780;28;20057;-60
2023/07/30 14:11:03;;;;;;;2.03;0.70;;;;;;;;;;5022669;28;20503;-60
2023/07/30 14:13:29;;;;;;;1.00;0.50;;;;;;;;;;5019724;28;20279;-60
2023/07/30 14:15:56;;;;;;;2.50;0.90;;;;;;;;;;5012308;28;20052;-61
2023/07/30 14:18:22;;;;;;;2.72;1.20;;;;;;;;;;5019369;28;20048;-60
2023/07/30 14:20:48;;;;;;;2.08;0.93;;;;;;;;;;5014398;28;20061;-60
2023/07/30 14:23:14;;;;;;;3.55;0.85;;;;;;;;;;5016666;28;20034;-60
2023/07/30 14:25:40;;;;;;;1.75;0.85;;;;;;;;;;5022294;28;20415;-61
2023/07/30 14:28:07;;;;;;;2.35;0.70;;;;;;;;;;5020465;28;20079;-60
2023/07/30 14:30:33;;;;;;;4.13;1.30;;;;;;;;;;5020336;28;20493;-61
2023/07/30 14:33:00;;;;;;;2.90;1.35;;;;;;;;;;5020543;28;20040;-60
2023/07/30 14:35:26;;;;;;;2.95;1.63;;;;;;;;;;5021449;28;20077;-61
2023/07/30 14:37:52;;;;;;;2.45;1.13;;;;;;;;;;5015560;28;20091;-60
2023/07/30 14:40:18;;;;;;;2.65;1.25;;;;;;;;;;5019232;28;20053;-61